createdAt,value
2023-05-16T04:55:14.948Z,85.40
2023-05-16T05:00:19.472Z,87.30
2023-05-16T05:05:23.097Z,84.60
2023-05-16T05:10:28.353Z,83.50
2023-05-16T05:15:32.171Z,80.50
2023-05-16T05:20:36.855Z,78.80
2023-05-16T05:25:41.930Z,77.50
2023-05-16T05:30:45.895Z,76.40
2023-05-16T05:35:49.403Z,76.40
2023-05-16T05:40:54.436Z,75.70
2023-05-16T05:45:58.212Z,75.50
2023-05-16T05:51:01.777Z,75.50
2023-05-16T05:56:07.003Z,74.80
2023-05-16T06:01:11.626Z,74.50
2023-05-16T06:06:16.102Z,74.80
2023-05-16T06:11:21.574Z,74.90
2023-05-16T06:16:26.781Z,75.20
2023-05-16T06:21:30.679Z,75.30
2023-05-16T06:26:36.933Z,75.00
2023-05-16T06:31:40.560Z,74.40
2023-05-16T06:36:44.508Z,74.40
2023-05-16T06:41:49.785Z,74.30
2023-05-16T06:46:53.469Z,74.30
2023-05-16T06:51:57.019Z,73.50
2023-05-16T06:57:02.313Z,74.20
2023-05-16T07:02:06.363Z,74.00
2023-05-16T07:07:10.063Z,73.80
2023-05-16T07:12:15.038Z,73.30
2023-05-16T07:17:19.101Z,72.90
2023-05-16T07:22:22.812Z,72.70
2023-05-16T07:27:27.937Z,73.00
2023-05-16T07:32:31.803Z,72.90
2023-05-16T07:37:35.977Z,72.00
2023-05-16T07:42:40.771Z,71.80
2023-05-16T07:47:44.313Z,71.30
2023-05-16T07:52:47.902Z,70.90
2023-05-16T07:57:52.798Z,70.50
2023-05-16T08:02:56.395Z,70.50
2023-05-16T08:07:59.881Z,69.80
2023-05-16T08:13:05.119Z,69.40
2023-05-16T08:18:15.201Z,68.30
2023-05-16T08:23:18.765Z,68.30
2023-05-16T08:28:23.645Z,67.60
2023-05-16T08:33:27.389Z,66.20
2023-05-16T08:38:30.894Z,66.50
2023-05-16T08:43:36.788Z,66.80
2023-05-16T08:48:41.476Z,66.50
2023-05-16T08:53:51.800Z,65.70
2023-05-16T08:58:58.139Z,64.60
2023-05-16T09:04:02.403Z,64.70
2023-05-16T09:09:08.264Z,64.50
2023-05-16T09:14:14.336Z,62.80
2023-05-16T09:19:18.460Z,62.20
2023-05-16T09:24:27.386Z,61.20
2023-05-16T09:29:33.784Z,61.50
2023-05-16T09:34:40.663Z,62.30
2023-05-16T09:39:48.536Z,61.70
2023-05-16T09:44:56.725Z,60.80
2023-05-16T09:50:01.466Z,61.10
2023-05-16T09:55:08.522Z,59.80
2023-05-16T10:00:14.617Z,61.30
2023-05-16T10:05:18.277Z,59.90
2023-05-16T10:10:21.956Z,59.50
2023-05-16T10:15:27.885Z,60.10
2023-05-16T10:20:32.337Z,59.00
2023-05-16T10:25:41.162Z,58.40
2023-05-16T10:30:47.323Z,58.70
2023-05-16T10:35:51.110Z,57.60
2023-05-16T10:40:55.021Z,58.10
2023-05-16T10:46:07.552Z,58.30
2023-05-16T10:51:25.950Z,57.60
2023-05-16T10:56:29.726Z,57.40
2023-05-16T11:01:36.216Z,57.00
2023-05-16T11:06:54.738Z,57.30
2023-05-16T11:12:00.989Z,57.20
2023-05-16T11:17:10.501Z,57.00
2023-05-16T11:22:26.213Z,57.90
2023-05-16T11:27:31.714Z,57.10
2023-05-16T11:32:37.710Z,56.90
2023-05-16T11:37:41.636Z,57.50
2023-05-16T11:42:47.656Z,58.70
2023-05-16T11:47:52.889Z,59.30
2023-05-16T11:52:57.613Z,59.20
2023-05-16T11:58:02.177Z,59.80
2023-05-16T12:03:08.337Z,61.50
2023-05-16T12:08:12.768Z,60.80
2023-05-16T12:13:18.727Z,61.50
2023-05-16T12:18:25.421Z,61.50
2023-05-16T12:23:29.860Z,62.10
2023-05-16T12:28:34.830Z,61.80
2023-05-16T12:33:40.061Z,60.90
2023-05-16T12:38:47.484Z,61.70
2023-05-16T12:43:51.425Z,61.90
2023-05-16T12:49:05.198Z,63.10
2023-05-16T12:54:11.639Z,63.80
2023-05-16T12:59:15.474Z,63.80
2023-05-16T13:04:20.706Z,64.00
2023-05-16T13:09:24.732Z,64.90
2023-05-16T13:14:28.285Z,63.70
2023-05-16T13:19:33.191Z,64.20
2023-05-16T13:24:36.938Z,66.60
2023-05-16T13:29:40.783Z,67.50
2023-05-16T13:34:45.624Z,68.00
2023-05-16T13:39:49.162Z,68.90
2023-05-16T13:44:52.615Z,69.70
2023-05-16T13:49:57.751Z,69.80
2023-05-16T13:55:01.299Z,70.50
2023-05-16T14:00:35.385Z,70.00
2023-05-16T14:05:37.063Z,70.60
2023-05-16T14:10:40.522Z,71.20
2023-05-16T14:15:44.385Z,71.90
2023-05-16T14:20:50.794Z,72.50
2023-05-16T14:25:55.065Z,73.30
2023-05-16T14:30:59.252Z,74.00
2023-05-16T14:36:06.498Z,74.30
2023-05-16T14:41:11.365Z,74.60
2023-05-16T14:46:15.230Z,74.90
2023-05-16T14:51:20.365Z,75.10
2023-05-16T14:56:23.833Z,75.60
2023-05-16T15:01:28.873Z,75.70
2023-05-16T15:06:35.328Z,76.20
2023-05-16T15:11:38.775Z,76.40
2023-05-16T15:16:43.003Z,76.10
2023-05-16T15:21:48.274Z,76.10
2023-05-16T15:26:53.131Z,76.10
2023-05-16T15:31:57.160Z,75.90
2023-05-16T15:37:02.717Z,75.30
2023-05-16T15:42:11.291Z,75.80
2023-05-16T15:47:14.999Z,76.30
2023-05-16T15:52:22.338Z,75.70
2023-05-16T15:57:26.449Z,76.20
2023-05-16T16:02:30.038Z,76.20
2023-05-16T16:07:35.492Z,75.30
2023-05-16T16:12:38.988Z,75.80
2023-05-16T16:17:42.471Z,76.20
2023-05-16T16:22:47.688Z,76.40
2023-05-16T16:27:51.809Z,76.90
2023-05-16T16:32:55.401Z,77.30
2023-05-16T16:38:06.681Z,78.00
2023-05-16T16:43:10.772Z,77.60
2023-05-16T16:48:14.254Z,77.40
2023-05-16T16:53:19.240Z,78.40
2023-05-16T16:58:23.018Z,77.90
2023-05-16T17:03:26.871Z,78.60
2023-05-16T17:08:31.785Z,78.80
2023-05-16T17:13:37.841Z,79.30
2023-05-16T17:18:42.904Z,79.70
2023-05-16T17:23:47.861Z,80.10
2023-05-16T17:28:51.427Z,80.20
2023-05-16T17:33:54.840Z,81.00
2023-05-16T17:38:59.894Z,80.60
2023-05-16T17:44:03.473Z,80.40
2023-05-16T17:49:08.201Z,81.50
2023-05-16T17:54:13.513Z,81.80
2023-05-16T17:59:17.875Z,82.20
2023-05-16T18:04:22.631Z,82.80
2023-05-16T18:09:28.763Z,83.00
2023-05-16T18:14:33.097Z,83.10
2023-05-16T18:19:37.500Z,83.70
2023-05-16T18:24:42.407Z,84.40
2023-05-16T18:29:47.288Z,84.50
2023-05-16T18:34:50.772Z,86.40
2023-05-16T18:39:55.625Z,85.60
2023-05-16T18:44:59.125Z,85.70
2023-05-16T18:50:02.875Z,86.20
2023-05-16T18:55:08.760Z,86.10
2023-05-16T19:00:13.611Z,86.70
2023-05-16T19:05:17.355Z,86.90
2023-05-16T19:10:22.459Z,87.10
2023-05-16T19:15:26.387Z,87.30
2023-05-16T19:20:30.265Z,87.50
2023-05-16T19:25:35.486Z,87.70
2023-05-16T19:30:39.667Z,88.00
2023-05-16T19:35:43.717Z,88.00
2023-05-16T19:40:48.676Z,88.10
2023-05-16T19:45:52.936Z,88.50
2023-05-16T19:50:56.736Z,88.90
2023-05-16T19:56:02.118Z,89.60
2023-05-16T20:01:06.122Z,89.70
2023-05-16T20:06:09.743Z,89.60
2023-05-16T20:11:14.859Z,89.80
2023-05-16T20:16:22.479Z,89.70
2023-05-16T20:21:26.650Z,89.50
2023-05-16T20:26:31.526Z,90.20
2023-05-16T20:31:35.921Z,90.30
2023-05-16T20:36:39.737Z,90.40
2023-05-16T20:41:48.296Z,90.40
2023-05-16T20:46:52.685Z,90.60
2023-05-16T20:51:56.489Z,89.40
2023-05-16T20:57:02.936Z,89.30
2023-05-16T21:02:09.709Z,88.50
2023-05-16T21:07:13.213Z,89.50
2023-05-16T21:12:18.037Z,88.80
2023-05-16T21:17:21.551Z,89.30
2023-05-16T21:22:25.036Z,89.50
2023-05-16T21:27:29.968Z,89.90
2023-05-16T21:32:33.953Z,90.10
2023-05-16T21:37:37.404Z,90.20
2023-05-16T21:42:42.406Z,90.10
2023-05-16T21:47:46.276Z,90.20
2023-05-16T21:52:50.437Z,90.20
2023-05-16T21:57:55.622Z,90.20
2023-05-16T22:02:59.168Z,90.10
2023-05-16T22:08:02.681Z,90.20
2023-05-16T22:13:08.168Z,90.20
2023-05-16T22:18:12.089Z,90.40
2023-05-16T22:23:15.652Z,90.40
2023-05-16T22:28:20.840Z,90.20
